sensor_id;sensor_type;location;lat;lon;timestamp;P1;durP1;ratioP1;P2;durP2;ratioP2
10471;SDS011;5283;48.876;8.962;2023-12-22T00:01:24;1.27;;;0.83;;
10471;SDS011;5283;48.876;8.962;2023-12-22T00:03:50;2.07;;;0.80;;
10471;SDS011;5283;48.876;8.962;2023-12-22T00:06:17;3.27;;;1.30;;
10471;SDS011;5283;48.876;8.962;2023-12-22T00:08:44;3.40;;;1.30;;
10471;SDS011;5283;48.876;8.962;2023-12-22T00:11:11;2.13;;;1.40;;
10471;SDS011;5283;48.876;8.962;2023-12-22T00:13:38;6.77;;;2.00;;
10471;SDS011;5283;48.876;8.962;2023-12-22T00:16:04;4.30;;;1.60;;
10471;SDS011;5283;48.876;8.962;2023-12-22T00:18:31;3.90;;;1.43;;
10471;SDS011;5283;48.876;8.962;2023-12-22T00:20:58;3.33;;;1.27;;
10471;SDS011;5283;48.876;8.962;2023-12-22T00:23:24;3.80;;;1.23;;
10471;SDS011;5283;48.876;8.962;2023-12-22T00:25:51;3.67;;;0.80;;
10471;SDS011;5283;48.876;8.962;2023-12-22T00:28:18;4.40;;;1.40;;
10471;SDS011;5283;48.876;8.962;2023-12-22T00:30:44;4.03;;;1.20;;
10471;SDS011;5283;48.876;8.962;2023-12-22T00:33:11;4.73;;;1.47;;
10471;SDS011;5283;48.876;8.962;2023-12-22T00:35:38;4.87;;;1.43;;
10471;SDS011;5283;48.876;8.962;2023-12-22T00:38:04;3.57;;;1.87;;
10471;SDS011;5283;48.876;8.962;2023-12-22T00:40:31;4.67;;;1.63;;
10471;SDS011;5283;48.876;8.962;2023-12-22T00:42:58;2.27;;;1.37;;
10471;SDS011;5283;48.876;8.962;2023-12-22T00:45:24;4.27;;;1.10;;
10471;SDS011;5283;48.876;8.962;2023-12-22T00:47:51;4.90;;;1.70;;
10471;SDS011;5283;48.876;8.962;2023-12-22T00:50:18;3.07;;;1.50;;
10471;SDS011;5283;48.876;8.962;2023-12-22T00:52:45;3.93;;;1.47;;
10471;SDS011;5283;48.876;8.962;2023-12-22T00:55:12;4.03;;;1.20;;
10471;SDS011;5283;48.876;8.962;2023-12-22T00:57:39;2.47;;;1.50;;
10471;SDS011;5283;48.876;8.962;2023-12-22T01:00:05;3.80;;;1.50;;
10471;SDS011;5283;48.876;8.962;2023-12-22T01:02:36;2.83;;;1.40;;
10471;SDS011;5283;48.876;8.962;2023-12-22T01:05:03;3.70;;;1.73;;
10471;SDS011;5283;48.876;8.962;2023-12-22T01:07:30;3.47;;;1.50;;
10471;SDS011;5283;48.876;8.962;2023-12-22T01:09:57;4.17;;;1.70;;
10471;SDS011;5283;48.876;8.962;2023-12-22T01:12:28;2.07;;;1.27;;
10471;SDS011;5283;48.876;8.962;2023-12-22T01:14:55;4.13;;;1.03;;
10471;SDS011;5283;48.876;8.962;2023-12-22T01:17:23;3.03;;;1.00;;
10471;SDS011;5283;48.876;8.962;2023-12-22T01:19:49;4.77;;;1.40;;
10471;SDS011;5283;48.876;8.962;2023-12-22T01:22:17;2.93;;;1.30;;
10471;SDS011;5283;48.876;8.962;2023-12-22T01:24:44;3.67;;;1.30;;
10471;SDS011;5283;48.876;8.962;2023-12-22T01:27:11;2.23;;;0.93;;
10471;SDS011;5283;48.876;8.962;2023-12-22T01:29:38;8.07;;;1.70;;
10471;SDS011;5283;48.876;8.962;2023-12-22T01:32:05;1.90;;;1.00;;
10471;SDS011;5283;48.876;8.962;2023-12-22T01:34:32;2.20;;;1.30;;
10471;SDS011;5283;48.876;8.962;2023-12-22T01:36:59;3.57;;;1.10;;
10471;SDS011;5283;48.876;8.962;2023-12-22T01:39:25;2.27;;;0.90;;
10471;SDS011;5283;48.876;8.962;2023-12-22T01:41:52;2.63;;;0.70;;
10471;SDS011;5283;48.876;8.962;2023-12-22T01:44:19;3.33;;;0.93;;
10471;SDS011;5283;48.876;8.962;2023-12-22T01:46:46;1.63;;;0.70;;
10471;SDS011;5283;48.876;8.962;2023-12-22T01:49:13;4.00;;;0.90;;
10471;SDS011;5283;48.876;8.962;2023-12-22T01:51:41;3.03;;;1.00;;
10471;SDS011;5283;48.876;8.962;2023-12-22T01:54:08;3.07;;;0.57;;
10471;SDS011;5283;48.876;8.962;2023-12-22T01:56:36;2.70;;;0.70;;
10471;SDS011;5283;48.876;8.962;2023-12-22T01:59:03;1.50;;;0.67;;
10471;SDS011;5283;48.876;8.962;2023-12-22T02:01:29;1.53;;;0.77;;
10471;SDS011;5283;48.876;8.962;2023-12-22T02:03:57;1.77;;;0.70;;
10471;SDS011;5283;48.876;8.962;2023-12-22T02:06:25;1.13;;;0.60;;
10471;SDS011;5283;48.876;8.962;2023-12-22T02:08:52;0.80;;;0.60;;
10471;SDS011;5283;48.876;8.962;2023-12-22T02:11:20;1.57;;;0.70;;
10471;SDS011;5283;48.876;8.962;2023-12-22T02:13:46;1.50;;;0.57;;
10471;SDS011;5283;48.876;8.962;2023-12-22T02:16:18;1.60;;;0.63;;
10471;SDS011;5283;48.876;8.962;2023-12-22T02:18:55;1.67;;;0.63;;
10471;SDS011;5283;48.876;8.962;2023-12-22T02:21:22;1.00;;;0.80;;
10471;SDS011;5283;48.876;8.962;2023-12-22T02:23:48;2.13;;;0.67;;
10471;SDS011;5283;48.876;8.962;2023-12-22T02:26:24;1.77;;;0.87;;
10471;SDS011;5283;48.876;8.962;2023-12-22T02:28:55;2.30;;;0.70;;
10471;SDS011;5283;48.876;8.962;2023-12-22T02:31:36;1.73;;;0.43;;
10471;SDS011;5283;48.876;8.962;2023-12-22T02:34:13;2.57;;;0.90;;
10471;SDS011;5283;48.876;8.962;2023-12-22T02:36:44;3.23;;;1.20;;
10471;SDS011;5283;48.876;8.962;2023-12-22T02:39:11;1.77;;;0.57;;
10471;SDS011;5283;48.876;8.962;2023-12-22T02:41:40;1.77;;;0.93;;
10471;SDS011;5283;48.876;8.962;2023-12-22T02:44:08;2.53;;;0.73;;
10471;SDS011;5283;48.876;8.962;2023-12-22T02:46:35;1.50;;;0.80;;
10471;SDS011;5283;48.876;8.962;2023-12-22T02:49:01;3.70;;;1.00;;
10471;SDS011;5283;48.876;8.962;2023-12-22T02:51:28;2.73;;;1.00;;
10471;SDS011;5283;48.876;8.962;2023-12-22T02:53:55;1.63;;;0.80;;
10471;SDS011;5283;48.876;8.962;2023-12-22T02:56:21;0.93;;;0.53;;
10471;SDS011;5283;48.876;8.962;2023-12-22T02:58:48;1.07;;;0.60;;
10471;SDS011;5283;48.876;8.962;2023-12-22T03:01:15;1.13;;;0.50;;
10471;SDS011;5283;48.876;8.962;2023-12-22T03:03:41;0.97;;;0.70;;
10471;SDS011;5283;48.876;8.962;2023-12-22T03:06:08;3.73;;;1.20;;
10471;SDS011;5283;48.876;8.962;2023-12-22T03:08:35;3.90;;;1.07;;
10471;SDS011;5283;48.876;8.962;2023-12-22T03:11:02;2.23;;;0.90;;
10471;SDS011;5283;48.876;8.962;2023-12-22T03:13:28;3.27;;;1.33;;
10471;SDS011;5283;48.876;8.962;2023-12-22T03:15:55;2.33;;;0.90;;
10471;SDS011;5283;48.876;8.962;2023-12-22T03:18:22;0.23;;;0.23;;
10471;SDS011;5283;48.876;8.962;2023-12-22T03:20:49;0.20;;;0.20;;
10471;SDS011;5283;48.876;8.962;2023-12-22T03:23:15;0.77;;;0.40;;
10471;SDS011;5283;48.876;8.962;2023-12-22T03:25:42;0.30;;;0.20;;
10471;SDS011;5283;48.876;8.962;2023-12-22T03:28:08;0.40;;;0.30;;
10471;SDS011;5283;48.876;8.962;2023-12-22T03:30:35;0.30;;;0.27;;
10471;SDS011;5283;48.876;8.962;2023-12-22T03:33:04;1.07;;;0.63;;
10471;SDS011;5283;48.876;8.962;2023-12-22T03:35:30;0.93;;;0.60;;
10471;SDS011;5283;48.876;8.962;2023-12-22T03:37:57;0.60;;;0.43;;
10471;SDS011;5283;48.876;8.962;2023-12-22T03:40:24;0.10;;;0.10;;
10471;SDS011;5283;48.876;8.962;2023-12-22T03:42:51;0.60;;;0.30;;
10471;SDS011;5283;48.876;8.962;2023-12-22T03:45:17;0.40;;;0.40;;
10471;SDS011;5283;48.876;8.962;2023-12-22T03:47:44;0.80;;;0.40;;
10471;SDS011;5283;48.876;8.962;2023-12-22T03:50:11;0.73;;;0.57;;
10471;SDS011;5283;48.876;8.962;2023-12-22T03:52:37;1.17;;;0.60;;
10471;SDS011;5283;48.876;8.962;2023-12-22T03:55:04;1.40;;;0.60;;
10471;SDS011;5283;48.876;8.962;2023-12-22T03:57:31;1.77;;;0.80;;
10471;SDS011;5283;48.876;8.962;2023-12-22T03:59:57;2.20;;;0.77;;
10471;SDS011;5283;48.876;8.962;2023-12-22T04:02:24;1.40;;;0.60;;
10471;SDS011;5283;48.876;8.962;2023-12-22T04:04:51;1.77;;;0.80;;
10471;SDS011;5283;48.876;8.962;2023-12-22T04:07:17;1.93;;;1.00;;
10471;SDS011;5283;48.876;8.962;2023-12-22T04:09:44;2.17;;;1.20;;
10471;SDS011;5283;48.876;8.962;2023-12-22T04:12:11;3.17;;;1.20;;
10471;SDS011;5283;48.876;8.962;2023-12-22T04:14:37;2.60;;;0.93;;
10471;SDS011;5283;48.876;8.962;2023-12-22T04:17:04;1.47;;;0.70;;
10471;SDS011;5283;48.876;8.962;2023-12-22T04:19:31;1.17;;;0.60;;
10471;SDS011;5283;48.876;8.962;2023-12-22T04:21:58;4.63;;;1.80;;
10471;SDS011;5283;48.876;8.962;2023-12-22T04:24:24;5.10;;;1.70;;
10471;SDS011;5283;48.876;8.962;2023-12-22T04:26:51;4.13;;;1.33;;
10471;SDS011;5283;48.876;8.962;2023-12-22T04:29:17;5.73;;;1.97;;
10471;SDS011;5283;48.876;8.962;2023-12-22T04:31:44;7.80;;;2.13;;
10471;SDS011;5283;48.876;8.962;2023-12-22T04:34:14;5.87;;;2.03;;
10471;SDS011;5283;48.876;8.962;2023-12-22T04:36:42;8.03;;;1.93;;
10471;SDS011;5283;48.876;8.962;2023-12-22T04:39:08;6.83;;;1.70;;
10471;SDS011;5283;48.876;8.962;2023-12-22T04:41:35;5.13;;;1.90;;
10471;SDS011;5283;48.876;8.962;2023-12-22T04:44:02;3.70;;;1.30;;
10471;SDS011;5283;48.876;8.962;2023-12-22T04:46:29;5.20;;;1.80;;
10471;SDS011;5283;48.876;8.962;2023-12-22T04:48:56;5.77;;;1.97;;
10471;SDS011;5283;48.876;8.962;2023-12-22T04:51:23;6.13;;;1.83;;
10471;SDS011;5283;48.876;8.962;2023-12-22T04:53:50;6.27;;;1.77;;
10471;SDS011;5283;48.876;8.962;2023-12-22T04:56:16;4.37;;;1.53;;
10471;SDS011;5283;48.876;8.962;2023-12-22T04:58:43;4.10;;;1.37;;
10471;SDS011;5283;48.876;8.962;2023-12-22T05:01:10;4.93;;;2.13;;
10471;SDS011;5283;48.876;8.962;2023-12-22T05:03:37;7.23;;;2.03;;
10471;SDS011;5283;48.876;8.962;2023-12-22T05:06:04;6.43;;;1.97;;
10471;SDS011;5283;48.876;8.962;2023-12-22T05:08:31;8.57;;;1.97;;
10471;SDS011;5283;48.876;8.962;2023-12-22T05:10:57;1.23;;;0.53;;
10471;SDS011;5283;48.876;8.962;2023-12-22T05:13:24;0.30;;;0.23;;
10471;SDS011;5283;48.876;8.962;2023-12-22T05:15:51;8.73;;;2.33;;
10471;SDS011;5283;48.876;8.962;2023-12-22T05:18:17;5.50;;;2.00;;
10471;SDS011;5283;48.876;8.962;2023-12-22T05:20:44;4.17;;;1.90;;
10471;SDS011;5283;48.876;8.962;2023-12-22T05:23:11;7.27;;;2.33;;
10471;SDS011;5283;48.876;8.962;2023-12-22T05:25:38;6.33;;;2.33;;
10471;SDS011;5283;48.876;8.962;2023-12-22T05:28:04;3.50;;;1.60;;
10471;SDS011;5283;48.876;8.962;2023-12-22T05:30:31;7.10;;;2.30;;
10471;SDS011;5283;48.876;8.962;2023-12-22T05:32:58;5.13;;;1.90;;
10471;SDS011;5283;48.876;8.962;2023-12-22T05:35:24;9.53;;;1.80;;
10471;SDS011;5283;48.876;8.962;2023-12-22T05:37:51;8.67;;;2.17;;
10471;SDS011;5283;48.876;8.962;2023-12-22T05:40:18;7.17;;;2.33;;
10471;SDS011;5283;48.876;8.962;2023-12-22T05:42:45;6.00;;;2.33;;
10471;SDS011;5283;48.876;8.962;2023-12-22T05:45:12;7.20;;;2.13;;
10471;SDS011;5283;48.876;8.962;2023-12-22T05:47:40;8.03;;;3.00;;
10471;SDS011;5283;48.876;8.962;2023-12-22T05:50:07;8.07;;;1.97;;
10471;SDS011;5283;48.876;8.962;2023-12-22T05:52:34;7.30;;;2.13;;
10471;SDS011;5283;48.876;8.962;2023-12-22T05:55:00;5.93;;;2.10;;
10471;SDS011;5283;48.876;8.962;2023-12-22T05:57:28;5.63;;;1.63;;
10471;SDS011;5283;48.876;8.962;2023-12-22T05:59:54;5.03;;;2.00;;
10471;SDS011;5283;48.876;8.962;2023-12-22T06:02:21;6.27;;;2.20;;
10471;SDS011;5283;48.876;8.962;2023-12-22T06:04:48;11.90;;;1.87;;
10471;SDS011;5283;48.876;8.962;2023-12-22T06:07:14;5.50;;;2.20;;
10471;SDS011;5283;48.876;8.962;2023-12-22T06:09:41;8.73;;;2.33;;
10471;SDS011;5283;48.876;8.962;2023-12-22T06:12:07;5.97;;;1.87;;
10471;SDS011;5283;48.876;8.962;2023-12-22T06:14:36;4.57;;;1.77;;
10471;SDS011;5283;48.876;8.962;2023-12-22T06:17:03;9.00;;;2.10;;
10471;SDS011;5283;48.876;8.962;2023-12-22T06:19:29;4.17;;;2.00;;
10471;SDS011;5283;48.876;8.962;2023-12-22T06:21:56;7.20;;;2.07;;
10471;SDS011;5283;48.876;8.962;2023-12-22T06:24:23;5.83;;;2.33;;
10471;SDS011;5283;48.876;8.962;2023-12-22T06:26:50;5.03;;;1.90;;
10471;SDS011;5283;48.876;8.962;2023-12-22T06:29:16;4.00;;;1.90;;
10471;SDS011;5283;48.876;8.962;2023-12-22T06:31:43;7.27;;;2.07;;
10471;SDS011;5283;48.876;8.962;2023-12-22T06:34:10;9.23;;;2.10;;
10471;SDS011;5283;48.876;8.962;2023-12-22T06:36:36;5.93;;;1.60;;
10471;SDS011;5283;48.876;8.962;2023-12-22T06:39:03;5.57;;;2.03;;
10471;SDS011;5283;48.876;8.962;2023-12-22T06:41:30;4.47;;;1.80;;
10471;SDS011;5283;48.876;8.962;2023-12-22T06:43:59;4.10;;;2.07;;
10471;SDS011;5283;48.876;8.962;2023-12-22T06:46:26;4.43;;;1.70;;
10471;SDS011;5283;48.876;8.962;2023-12-22T06:48:54;6.80;;;2.30;;
10471;SDS011;5283;48.876;8.962;2023-12-22T06:51:22;6.10;;;1.70;;
10471;SDS011;5283;48.876;8.962;2023-12-22T06:53:50;3.20;;;1.90;;
10471;SDS011;5283;48.876;8.962;2023-12-22T06:56:21;6.83;;;1.77;;
10471;SDS011;5283;48.876;8.962;2023-12-22T06:58:49;6.30;;;1.70;;
10471;SDS011;5283;48.876;8.962;2023-12-22T07:03:59;10.07;;;2.07;;
10471;SDS011;5283;48.876;8.962;2023-12-22T07:06:28;6.40;;;2.00;;
10471;SDS011;5283;48.876;8.962;2023-12-22T07:11:39;6.00;;;2.00;;
10471;SDS011;5283;48.876;8.962;2023-12-22T07:14:06;7.53;;;1.70;;
10471;SDS011;5283;48.876;8.962;2023-12-22T07:16:36;6.27;;;2.00;;
10471;SDS011;5283;48.876;8.962;2023-12-22T07:19:03;4.67;;;2.20;;
10471;SDS011;5283;48.876;8.962;2023-12-22T07:21:31;9.37;;;2.90;;
10471;SDS011;5283;48.876;8.962;2023-12-22T07:23:57;7.30;;;2.37;;
10471;SDS011;5283;48.876;8.962;2023-12-22T07:26:25;6.13;;;2.10;;
10471;SDS011;5283;48.876;8.962;2023-12-22T07:28:53;6.90;;;2.33;;
10471;SDS011;5283;48.876;8.962;2023-12-22T07:31:20;7.87;;;2.03;;
10471;SDS011;5283;48.876;8.962;2023-12-22T07:33:47;8.07;;;2.40;;
10471;SDS011;5283;48.876;8.962;2023-12-22T07:36:14;6.83;;;2.00;;
10471;SDS011;5283;48.876;8.962;2023-12-22T07:38:41;1.40;;;1.00;;
10471;SDS011;5283;48.876;8.962;2023-12-22T07:41:08;2.70;;;1.17;;
10471;SDS011;5283;48.876;8.962;2023-12-22T07:43:35;2.13;;;1.00;;
10471;SDS011;5283;48.876;8.962;2023-12-22T07:46:02;3.73;;;1.20;;
10471;SDS011;5283;48.876;8.962;2023-12-22T07:48:28;4.33;;;1.47;;
10471;SDS011;5283;48.876;8.962;2023-12-22T07:50:55;4.43;;;1.63;;
10471;SDS011;5283;48.876;8.962;2023-12-22T07:53:22;3.70;;;1.17;;
10471;SDS011;5283;48.876;8.962;2023-12-22T07:55:49;3.37;;;1.33;;
10471;SDS011;5283;48.876;8.962;2023-12-22T07:58:15;4.73;;;1.47;;
10471;SDS011;5283;48.876;8.962;2023-12-22T08:00:43;2.23;;;1.10;;
10471;SDS011;5283;48.876;8.962;2023-12-22T08:03:12;4.40;;;1.70;;
10471;SDS011;5283;48.876;8.962;2023-12-22T08:05:39;2.30;;;1.03;;
10471;SDS011;5283;48.876;8.962;2023-12-22T08:08:06;3.97;;;1.70;;
10471;SDS011;5283;48.876;8.962;2023-12-22T08:10:32;5.03;;;1.73;;
10471;SDS011;5283;48.876;8.962;2023-12-22T08:12:59;5.37;;;1.70;;
10471;SDS011;5283;48.876;8.962;2023-12-22T08:15:26;7.33;;;2.53;;
10471;SDS011;5283;48.876;8.962;2023-12-22T08:17:54;6.70;;;1.63;;
10471;SDS011;5283;48.876;8.962;2023-12-22T08:20:21;6.97;;;2.60;;
10471;SDS011;5283;48.876;8.962;2023-12-22T08:22:48;9.07;;;2.30;;
10471;SDS011;5283;48.876;8.962;2023-12-22T08:25:16;7.60;;;2.40;;
10471;SDS011;5283;48.876;8.962;2023-12-22T08:27:46;8.93;;;2.53;;
10471;SDS011;5283;48.876;8.962;2023-12-22T08:30:13;7.87;;;2.70;;
10471;SDS011;5283;48.876;8.962;2023-12-22T08:32:43;9.67;;;2.70;;
10471;SDS011;5283;48.876;8.962;2023-12-22T08:35:10;7.60;;;2.47;;
10471;SDS011;5283;48.876;8.962;2023-12-22T08:37:36;11.00;;;2.87;;
10471;SDS011;5283;48.876;8.962;2023-12-22T08:40:03;12.47;;;3.00;;
10471;SDS011;5283;48.876;8.962;2023-12-22T08:42:32;10.27;;;3.20;;
10471;SDS011;5283;48.876;8.962;2023-12-22T08:44:58;9.70;;;2.63;;
10471;SDS011;5283;48.876;8.962;2023-12-22T08:47:25;6.83;;;2.73;;
10471;SDS011;5283;48.876;8.962;2023-12-22T08:49:52;7.10;;;2.30;;
10471;SDS011;5283;48.876;8.962;2023-12-22T08:52:18;7.87;;;2.60;;
10471;SDS011;5283;48.876;8.962;2023-12-22T08:54:45;10.20;;;2.30;;
10471;SDS011;5283;48.876;8.962;2023-12-22T08:57:12;12.23;;;2.50;;
10471;SDS011;5283;48.876;8.962;2023-12-22T08:59:39;9.53;;;2.23;;
10471;SDS011;5283;48.876;8.962;2023-12-22T09:02:05;8.80;;;2.47;;
10471;SDS011;5283;48.876;8.962;2023-12-22T09:04:32;9.07;;;2.73;;
10471;SDS011;5283;48.876;8.962;2023-12-22T09:06:59;8.03;;;2.53;;
10471;SDS011;5283;48.876;8.962;2023-12-22T09:09:26;10.80;;;2.93;;
10471;SDS011;5283;48.876;8.962;2023-12-22T09:11:53;9.13;;;2.40;;
10471;SDS011;5283;48.876;8.962;2023-12-22T09:14:20;8.43;;;2.23;;
10471;SDS011;5283;48.876;8.962;2023-12-22T09:16:47;10.47;;;2.93;;
10471;SDS011;5283;48.876;8.962;2023-12-22T09:19:14;9.77;;;2.60;;
10471;SDS011;5283;48.876;8.962;2023-12-22T09:21:40;6.17;;;2.33;;
10471;SDS011;5283;48.876;8.962;2023-12-22T09:24:10;8.67;;;2.13;;
10471;SDS011;5283;48.876;8.962;2023-12-22T09:26:38;7.27;;;2.80;;
10471;SDS011;5283;48.876;8.962;2023-12-22T09:29:05;8.97;;;2.60;;
10471;SDS011;5283;48.876;8.962;2023-12-22T09:31:32;10.23;;;2.47;;
10471;SDS011;5283;48.876;8.962;2023-12-22T09:33:59;11.97;;;3.33;;
10471;SDS011;5283;48.876;8.962;2023-12-22T09:36:25;9.47;;;3.03;;
10471;SDS011;5283;48.876;8.962;2023-12-22T09:38:52;7.07;;;2.50;;
10471;SDS011;5283;48.876;8.962;2023-12-22T09:41:19;9.63;;;3.10;;
10471;SDS011;5283;48.876;8.962;2023-12-22T09:43:46;8.60;;;3.37;;
10471;SDS011;5283;48.876;8.962;2023-12-22T09:46:18;6.60;;;2.87;;
10471;SDS011;5283;48.876;8.962;2023-12-22T09:48:48;11.87;;;3.17;;
10471;SDS011;5283;48.876;8.962;2023-12-22T09:51:18;11.13;;;3.00;;
10471;SDS011;5283;48.876;8.962;2023-12-22T09:53:45;8.17;;;2.40;;
10471;SDS011;5283;48.876;8.962;2023-12-22T09:56:13;8.20;;;2.90;;
10471;SDS011;5283;48.876;8.962;2023-12-22T09:58:41;9.77;;;2.67;;
10471;SDS011;5283;48.876;8.962;2023-12-22T10:01:07;8.60;;;2.93;;
10471;SDS011;5283;48.876;8.962;2023-12-22T10:03:35;0.50;;;0.50;;
10471;SDS011;5283;48.876;8.962;2023-12-22T10:06:03;0.00;;;0.00;;
10471;SDS011;5283;48.876;8.962;2023-12-22T10:08:30;2.03;;;1.20;;
10471;SDS011;5283;48.876;8.962;2023-12-22T10:10:58;2.23;;;1.00;;
10471;SDS011;5283;48.876;8.962;2023-12-22T10:13:25;2.90;;;1.47;;
10471;SDS011;5283;48.876;8.962;2023-12-22T10:15:54;2.50;;;1.47;;
10471;SDS011;5283;48.876;8.962;2023-12-22T10:18:21;3.37;;;1.63;;
10471;SDS011;5283;48.876;8.962;2023-12-22T10:20:48;3.53;;;1.40;;
10471;SDS011;5283;48.876;8.962;2023-12-22T10:23:15;2.57;;;1.40;;
10471;SDS011;5283;48.876;8.962;2023-12-22T10:25:42;2.73;;;1.20;;
10471;SDS011;5283;48.876;8.962;2023-12-22T10:28:11;2.83;;;1.30;;
10471;SDS011;5283;48.876;8.962;2023-12-22T10:30:40;3.37;;;1.77;;
10471;SDS011;5283;48.876;8.962;2023-12-22T10:33:07;2.93;;;1.40;;
10471;SDS011;5283;48.876;8.962;2023-12-22T10:35:34;1.43;;;1.00;;
10471;SDS011;5283;48.876;8.962;2023-12-22T10:38:00;2.53;;;1.37;;
10471;SDS011;5283;48.876;8.962;2023-12-22T10:40:27;1.97;;;1.13;;
10471;SDS011;5283;48.876;8.962;2023-12-22T10:42:55;2.10;;;1.07;;
10471;SDS011;5283;48.876;8.962;2023-12-22T10:45:22;2.60;;;1.10;;
10471;SDS011;5283;48.876;8.962;2023-12-22T10:47:49;3.43;;;1.37;;
10471;SDS011;5283;48.876;8.962;2023-12-22T10:50:18;4.60;;;1.27;;
10471;SDS011;5283;48.876;8.962;2023-12-22T10:52:49;1.93;;;1.00;;
10471;SDS011;5283;48.876;8.962;2023-12-22T10:55:19;2.37;;;1.10;;
10471;SDS011;5283;48.876;8.962;2023-12-22T10:57:47;1.70;;;0.90;;
10471;SDS011;5283;48.876;8.962;2023-12-22T11:00:15;2.07;;;1.23;;
10471;SDS011;5283;48.876;8.962;2023-12-22T11:02:47;1.80;;;1.13;;
10471;SDS011;5283;48.876;8.962;2023-12-22T11:05:17;1.53;;;0.77;;
10471;SDS011;5283;48.876;8.962;2023-12-22T11:07:50;2.63;;;1.03;;
10471;SDS011;5283;48.876;8.962;2023-12-22T11:10:20;2.70;;;1.07;;
10471;SDS011;5283;48.876;8.962;2023-12-22T11:12:47;1.47;;;0.70;;
10471;SDS011;5283;48.876;8.962;2023-12-22T11:15:15;1.60;;;0.87;;
10471;SDS011;5283;48.876;8.962;2023-12-22T11:17:44;2.27;;;0.87;;
10471;SDS011;5283;48.876;8.962;2023-12-22T11:20:12;2.13;;;0.93;;
10471;SDS011;5283;48.876;8.962;2023-12-22T11:22:40;2.53;;;1.40;;
10471;SDS011;5283;48.876;8.962;2023-12-22T11:25:08;2.33;;;0.77;;
10471;SDS011;5283;48.876;8.962;2023-12-22T11:27:36;1.87;;;0.77;;
10471;SDS011;5283;48.876;8.962;2023-12-22T11:30:06;1.30;;;0.70;;
10471;SDS011;5283;48.876;8.962;2023-12-22T11:32:35;1.97;;;1.10;;
10471;SDS011;5283;48.876;8.962;2023-12-22T11:35:02;1.57;;;0.70;;
10471;SDS011;5283;48.876;8.962;2023-12-22T11:37:31;2.63;;;0.70;;
10471;SDS011;5283;48.876;8.962;2023-12-22T11:39:59;1.23;;;0.60;;
10471;SDS011;5283;48.876;8.962;2023-12-22T11:42:28;2.77;;;0.90;;
10471;SDS011;5283;48.876;8.962;2023-12-22T11:44:58;2.57;;;0.87;;
10471;SDS011;5283;48.876;8.962;2023-12-22T11:47:25;1.77;;;0.73;;
10471;SDS011;5283;48.876;8.962;2023-12-22T11:49:52;2.50;;;0.80;;
10471;SDS011;5283;48.876;8.962;2023-12-22T11:52:24;1.30;;;0.80;;
10471;SDS011;5283;48.876;8.962;2023-12-22T11:54:53;2.50;;;0.60;;
10471;SDS011;5283;48.876;8.962;2023-12-22T12:00:09;1.53;;;0.57;;
10471;SDS011;5283;48.876;8.962;2023-12-22T12:03:03;1.57;;;0.47;;
10471;SDS011;5283;48.876;8.962;2023-12-22T12:05:32;0.90;;;0.53;;
10471;SDS011;5283;48.876;8.962;2023-12-22T12:08:06;1.60;;;0.60;;
10471;SDS011;5283;48.876;8.962;2023-12-22T12:13:06;0.77;;;0.33;;
10471;SDS011;5283;48.876;8.962;2023-12-22T12:15:34;0.83;;;0.30;;
10471;SDS011;5283;48.876;8.962;2023-12-22T12:18:02;1.67;;;0.60;;
10471;SDS011;5283;48.876;8.962;2023-12-22T12:20:29;0.83;;;0.47;;
10471;SDS011;5283;48.876;8.962;2023-12-22T12:22:56;0.43;;;0.33;;
10471;SDS011;5283;48.876;8.962;2023-12-22T12:25:23;1.90;;;0.60;;
10471;SDS011;5283;48.876;8.962;2023-12-22T12:28:04;1.17;;;0.30;;
10471;SDS011;5283;48.876;8.962;2023-12-22T12:30:32;0.37;;;0.20;;
10471;SDS011;5283;48.876;8.962;2023-12-22T12:33:05;0.27;;;0.27;;
10471;SDS011;5283;48.876;8.962;2023-12-22T12:35:33;0.40;;;0.30;;
10471;SDS011;5283;48.876;8.962;2023-12-22T12:38:00;0.90;;;0.40;;
10471;SDS011;5283;48.876;8.962;2023-12-22T12:40:29;1.43;;;0.30;;
10471;SDS011;5283;48.876;8.962;2023-12-22T12:42:58;0.80;;;0.50;;
10471;SDS011;5283;48.876;8.962;2023-12-22T12:45:26;0.10;;;0.10;;
10471;SDS011;5283;48.876;8.962;2023-12-22T12:47:56;0.37;;;0.20;;
10471;SDS011;5283;48.876;8.962;2023-12-22T12:50:26;1.30;;;0.30;;
10471;SDS011;5283;48.876;8.962;2023-12-22T12:53:00;0.60;;;0.27;;
10471;SDS011;5283;48.876;8.962;2023-12-22T12:55:28;0.73;;;0.20;;
10471;SDS011;5283;48.876;8.962;2023-12-22T12:57:55;0.20;;;0.20;;
10471;SDS011;5283;48.876;8.962;2023-12-22T13:00:25;0.30;;;0.20;;
10471;SDS011;5283;48.876;8.962;2023-12-22T13:02:58;0.20;;;0.10;;
10471;SDS011;5283;48.876;8.962;2023-12-22T13:05:29;0.17;;;0.17;;
10471;SDS011;5283;48.876;8.962;2023-12-22T13:10:38;0.40;;;0.30;;
10471;SDS011;5283;48.876;8.962;2023-12-22T13:13:05;0.73;;;0.20;;
10471;SDS011;5283;48.876;8.962;2023-12-22T13:15:32;0.10;;;0.10;;
10471;SDS011;5283;48.876;8.962;2023-12-22T13:18:00;0.00;;;0.00;;
10471;SDS011;5283;48.876;8.962;2023-12-22T13:20:27;0.10;;;0.10;;
10471;SDS011;5283;48.876;8.962;2023-12-22T13:22:54;0.00;;;0.00;;
10471;SDS011;5283;48.876;8.962;2023-12-22T13:25:21;0.00;;;0.00;;
10471;SDS011;5283;48.876;8.962;2023-12-22T13:27:50;0.00;;;0.00;;
10471;SDS011;5283;48.876;8.962;2023-12-22T13:30:37;0.00;;;0.00;;
10471;SDS011;5283;48.876;8.962;2023-12-22T13:33:07;0.00;;;0.00;;
10471;SDS011;5283;48.876;8.962;2023-12-22T13:35:34;0.00;;;0.00;;
10471;SDS011;5283;48.876;8.962;2023-12-22T13:38:06;0.00;;;0.00;;
10471;SDS011;5283;48.876;8.962;2023-12-22T13:40:33;0.00;;;0.00;;
10471;SDS011;5283;48.876;8.962;2023-12-22T13:43:01;0.00;;;0.00;;
10471;SDS011;5283;48.876;8.962;2023-12-22T13:45:28;0.00;;;0.00;;
10471;SDS011;5283;48.876;8.962;2023-12-22T13:47:57;0.00;;;0.00;;
10471;SDS011;5283;48.876;8.962;2023-12-22T13:50:24;0.00;;;0.00;;
10471;SDS011;5283;48.876;8.962;2023-12-22T13:52:51;0.00;;;0.00;;
10471;SDS011;5283;48.876;8.962;2023-12-22T13:55:18;0.00;;;0.00;;
10471;SDS011;5283;48.876;8.962;2023-12-22T13:57:46;0.00;;;0.00;;
10471;SDS011;5283;48.876;8.962;2023-12-22T14:02:46;0.00;;;0.00;;
10471;SDS011;5283;48.876;8.962;2023-12-22T14:05:15;0.10;;;0.10;;
10471;SDS011;5283;48.876;8.962;2023-12-22T14:07:43;0.00;;;0.00;;
10471;SDS011;5283;48.876;8.962;2023-12-22T14:10:10;0.00;;;0.00;;
10471;SDS011;5283;48.876;8.962;2023-12-22T14:12:37;0.00;;;0.00;;
10471;SDS011;5283;48.876;8.962;2023-12-22T14:15:08;0.00;;;0.00;;
10471;SDS011;5283;48.876;8.962;2023-12-22T14:17:35;0.07;;;0.07;;
10471;SDS011;5283;48.876;8.962;2023-12-22T14:20:03;0.00;;;0.00;;
10471;SDS011;5283;48.876;8.962;2023-12-22T14:22:31;0.00;;;0.00;;
10471;SDS011;5283;48.876;8.962;2023-12-22T14:24:57;0.00;;;0.00;;
10471;SDS011;5283;48.876;8.962;2023-12-22T14:27:24;0.10;;;0.10;;
10471;SDS011;5283;48.876;8.962;2023-12-22T14:29:51;0.00;;;0.00;;
10471;SDS011;5283;48.876;8.962;2023-12-22T14:32:17;0.00;;;0.00;;
10471;SDS011;5283;48.876;8.962;2023-12-22T14:34:47;0.00;;;0.00;;
10471;SDS011;5283;48.876;8.962;2023-12-22T14:37:14;0.00;;;0.00;;
10471;SDS011;5283;48.876;8.962;2023-12-22T14:39:42;0.07;;;0.00;;
10471;SDS011;5283;48.876;8.962;2023-12-22T14:42:10;0.10;;;0.10;;
10471;SDS011;5283;48.876;8.962;2023-12-22T14:44:36;0.00;;;0.00;;
10471;SDS011;5283;48.876;8.962;2023-12-22T14:47:05;0.00;;;0.00;;
10471;SDS011;5283;48.876;8.962;2023-12-22T14:49:32;0.10;;;0.10;;
10471;SDS011;5283;48.876;8.962;2023-12-22T14:51:59;0.13;;;0.13;;
10471;SDS011;5283;48.876;8.962;2023-12-22T14:54:26;0.30;;;0.10;;
10471;SDS011;5283;48.876;8.962;2023-12-22T14:56:53;0.17;;;0.17;;
10471;SDS011;5283;48.876;8.962;2023-12-22T14:59:19;0.00;;;0.00;;
10471;SDS011;5283;48.876;8.962;2023-12-22T15:01:46;0.00;;;0.00;;
10471;SDS011;5283;48.876;8.962;2023-12-22T15:04:14;0.07;;;0.07;;
10471;SDS011;5283;48.876;8.962;2023-12-22T15:06:41;0.30;;;0.20;;
10471;SDS011;5283;48.876;8.962;2023-12-22T15:09:12;0.00;;;0.00;;
10471;SDS011;5283;48.876;8.962;2023-12-22T15:11:45;0.00;;;0.00;;
10471;SDS011;5283;48.876;8.962;2023-12-22T15:14:12;0.10;;;0.10;;
10471;SDS011;5283;48.876;8.962;2023-12-22T15:16:42;0.00;;;0.00;;
10471;SDS011;5283;48.876;8.962;2023-12-22T15:19:11;0.00;;;0.00;;